San Fernando City, La Union Weather

 Home     Webcam     Satellite     Graphs     Full Site     Webcam Slideshow     Satellite Slideshow     Earthquakes     METAR     Tides   

RPLI - Laoag Intl Airport, Philippines
Distance from station: N 171km
Updated: Sun, 26-Jun-2022 3:00pm PST
Thunderstorm, Nearby showers, Partly cloudy
Thunderstorm, Nearby showers, Partly cloudy
 Wind from NNW
Wind: NNW 13 km/h
Temperature: 32°C
Heat Index: 43°C
Dew Point: 27°C
Humidity: 75%
Barometer: 1008 hPa
Summary: Thunderstorm, Nearby showers
Clouds: Partly cloudy
Visibility: 10 km
Cloud details: Partly cloudy 518 m
Partly cloudy 549 m
2022/06/26 07:00 RPLI 260700Z 33007KT 280V030 9999 TS VCSH SCT017CB SCT018 32/27 Q1008 NOSIG RMK A2974 CB/VCSH N-S
 
RPLB - Olongapo/Subic, Philippines
Distance from station: S 205km
Updated: Sun, 26-Jun-2022 3:00pm PST
Heavy thunderstorm, Rain, Mostly cloudy
Heavy thunderstorm, Rain, Mostly cloudy
 Wind from NE
Wind: NE 17 km/h
Temperature: 25°C
Dew Point: 23°C
Humidity: 89%
Barometer: 1008 hPa
Summary: Heavy thunderstorm, Rain
Clouds: Mostly cloudy
Visibility: 5 km
Cloud details: Few Clouds 549 m
Mostly cloudy 610 m
2022/06/26 07:00 RPLB 260700Z 04009KT 350V080 5000 +TSRA FEW018CB BKN020 25/23 Q1008 NOSIG RMK A2977 CB W
 
RPLL - Ninoy Aquino Intl Airport, Philippines
Distance from station: SSE 247km
Updated: Sun, 26-Jun-2022 3:00pm PST
Mostly cloudy
Mostly cloudy
 Wind from varies
Wind: varies 11 km/h
Temperature: 31°C
Heat Index: 38°C
Dew Point: 25°C
Humidity: 70%
Barometer: 1007 hPa
Clouds: Mostly cloudy
Visibility: 10 km
Cloud details: Partly cloudy 762 m
Mostly cloudy 3048 m
2022/06/26 07:00 RPLL 260700Z VRB06KT 9999 SCT025 BKN100 31/25 Q1007 NOSIG RMK A2974